createdAt,value
2019-01-18T00:02:17.700Z,9.20
2019-01-18T00:04:46.896Z,7.50
2019-01-18T00:07:16.187Z,7.97
2019-01-18T00:09:45.304Z,8.95
2019-01-18T00:12:14.504Z,7.47
2019-01-18T00:14:45.114Z,7.87
2019-01-18T00:17:14.476Z,9.18
2019-01-18T00:19:43.921Z,7.67
2019-01-18T00:22:13.126Z,7.87
2019-01-18T00:24:42.371Z,7.37
2019-01-18T00:27:11.519Z,7.55
2019-01-18T00:29:40.762Z,8.50
2019-01-18T00:32:09.967Z,8.00
2019-01-18T00:34:39.187Z,8.10
2019-01-18T00:37:08.411Z,8.13
2019-01-18T00:39:37.658Z,8.55
2019-01-18T00:42:08.873Z,8.65
2019-01-18T00:44:38.011Z,7.95
2019-01-18T00:47:07.155Z,8.23
2019-01-18T00:49:36.369Z,9.40
2019-01-18T00:52:05.497Z,9.38
2019-01-18T00:54:34.761Z,8.08
2019-01-18T00:57:06.996Z,9.15
2019-01-18T00:59:37.239Z,8.75
2019-01-18T01:02:07.509Z,9.18
2019-01-18T01:04:36.677Z,8.73
2019-01-18T01:07:05.869Z,9.10
2019-01-18T01:09:35.033Z,9.25
2019-01-18T01:12:05.602Z,8.65
2019-01-18T01:14:34.830Z,10.25
2019-01-18T01:17:04.090Z,8.55
2019-01-18T01:19:33.221Z,8.25
2019-01-18T01:22:02.445Z,9.30
2019-01-18T01:24:31.743Z,9.40
2019-01-18T01:27:00.945Z,8.53
2019-01-18T01:29:33.187Z,9.23
2019-01-18T01:32:02.511Z,8.90
2019-01-18T01:34:31.706Z,9.20
2019-01-18T01:37:01.008Z,8.98
2019-01-18T01:39:30.265Z,9.08
2019-01-18T01:41:59.409Z,9.53
2019-01-18T01:44:28.659Z,8.40
2019-01-18T01:46:57.804Z,7.62
2019-01-18T01:49:27.021Z,8.08
2019-01-18T01:51:56.237Z,7.92
2019-01-18T01:54:25.409Z,10.05
2019-01-18T01:56:54.675Z,8.03
2019-01-18T01:59:24.022Z,8.95
2019-01-18T02:01:53.284Z,8.33
2019-01-18T02:04:22.593Z,8.25
2019-01-18T02:06:51.685Z,7.45
2019-01-18T02:09:20.873Z,8.80
2019-01-18T02:11:50.104Z,9.08
2019-01-18T02:14:19.354Z,9.15
2019-01-18T02:16:48.593Z,10.03
2019-01-18T02:19:31.752Z,9.10
2019-01-18T02:22:00.993Z,8.85
2019-01-18T02:24:30.123Z,9.23
2019-01-18T02:26:59.319Z,10.00
2019-01-18T02:29:28.553Z,10.53
2019-01-18T02:31:57.691Z,11.50
2019-01-18T02:34:26.943Z,13.08
2019-01-18T02:36:56.189Z,13.15
2019-01-18T02:39:25.417Z,13.62
2019-01-18T02:41:54.569Z,15.43
2019-01-18T02:44:23.775Z,14.75
2019-01-18T02:46:52.905Z,14.25
2019-01-18T02:49:22.022Z,15.48
2019-01-18T02:51:51.165Z,15.85
2019-01-18T02:54:20.435Z,15.75
2019-01-18T02:56:49.579Z,15.15
2019-01-18T02:59:18.777Z,14.50
2019-01-18T03:01:47.964Z,14.58
2019-01-18T03:04:26.723Z,14.55
2019-01-18T03:06:56.260Z,14.60
2019-01-18T03:09:25.461Z,14.53
2019-01-18T03:11:54.683Z,14.33
2019-01-18T03:14:24.023Z,13.58
2019-01-18T03:16:53.283Z,13.85
2019-01-18T03:19:22.448Z,14.55
2019-01-18T03:21:51.579Z,14.68
2019-01-18T03:24:20.832Z,14.13
2019-01-18T03:26:50.014Z,14.47
2019-01-18T03:29:19.174Z,13.85
2019-01-18T03:31:48.268Z,15.63
2019-01-18T03:34:17.469Z,16.20
2019-01-18T03:36:46.616Z,14.93
2019-01-18T03:39:15.816Z,15.60
2019-01-18T03:41:48.035Z,15.23
2019-01-18T03:44:17.209Z,14.45
2019-01-18T03:46:46.409Z,15.98
2019-01-18T03:49:15.578Z,15.75
2019-01-18T03:51:44.785Z,15.65
2019-01-18T03:54:13.950Z,16.75
2019-01-18T03:56:43.178Z,16.95
2019-01-18T03:59:12.416Z,16.93
2019-01-18T04:01:41.635Z,15.80
2019-01-18T04:04:13.647Z,16.23
2019-01-18T04:06:42.844Z,18.02
2019-01-18T04:09:12.035Z,17.60
2019-01-18T04:11:41.178Z,16.97
2019-01-18T04:14:10.719Z,17.67
2019-01-18T04:16:40.043Z,16.90
2019-01-18T04:19:09.218Z,19.60
2019-01-18T04:21:38.462Z,20.10
2019-01-18T04:24:07.672Z,21.52
2019-01-18T04:26:36.879Z,19.87
2019-01-18T04:29:06.061Z,20.45
2019-01-18T04:31:35.252Z,20.30
2019-01-18T04:34:04.508Z,19.80
2019-01-18T04:36:33.728Z,20.15
2019-01-18T04:39:03.535Z,20.45
2019-01-18T04:41:32.692Z,22.48
2019-01-18T04:44:01.884Z,21.48
2019-01-18T04:46:31.069Z,20.23
2019-01-18T04:49:00.317Z,20.10
2019-01-18T04:51:29.600Z,21.27
2019-01-18T04:53:58.757Z,23.65
2019-01-18T04:56:28.069Z,19.85
2019-01-18T04:58:57.334Z,23.90
2019-01-18T05:01:26.470Z,22.17
2019-01-18T05:03:55.616Z,22.25
2019-01-18T05:06:24.758Z,20.88
2019-01-18T05:08:54.098Z,20.40
2019-01-18T05:11:23.267Z,19.73
2019-01-18T05:13:52.460Z,18.10
2019-01-18T05:16:21.802Z,19.32
2019-01-18T05:18:50.984Z,20.15
2019-01-18T05:21:20.226Z,20.60
2019-01-18T05:23:49.394Z,21.68
2019-01-18T05:26:18.642Z,22.25
2019-01-18T05:28:47.804Z,19.65
2019-01-18T05:31:17.049Z,18.40
2019-01-18T05:33:46.238Z,18.40
2019-01-18T05:36:15.742Z,18.37
2019-01-18T05:38:45.314Z,18.95
2019-01-18T05:41:14.493Z,19.85
2019-01-18T05:43:43.687Z,21.48
2019-01-18T05:46:12.955Z,20.15
2019-01-18T05:48:42.171Z,18.30
2019-01-18T05:51:11.347Z,20.90
2019-01-18T05:53:40.741Z,19.35
2019-01-18T05:56:09.899Z,21.60
2019-01-18T05:58:39.034Z,20.72
2019-01-18T06:01:10.206Z,18.62
2019-01-18T06:03:39.439Z,19.80
2019-01-18T06:06:08.563Z,18.90
2019-01-18T06:08:37.707Z,19.62
2019-01-18T06:11:06.815Z,21.90
2019-01-18T06:13:35.971Z,19.12
2019-01-18T06:16:05.249Z,19.10
2019-01-18T06:18:34.476Z,18.67
2019-01-18T06:21:03.653Z,20.00
2019-01-18T06:23:32.904Z,21.87
2019-01-18T06:26:02.044Z,19.62
2019-01-18T06:28:31.336Z,20.35
2019-01-18T06:31:01.816Z,20.05
2019-01-18T06:33:31.353Z,20.37
2019-01-18T06:36:00.648Z,20.25
2019-01-18T06:38:29.825Z,20.30
2019-01-18T06:41:07.240Z,20.55
2019-01-18T06:43:36.546Z,19.87
2019-01-18T06:46:05.780Z,20.60
2019-01-18T06:48:35.270Z,22.73
2019-01-18T06:51:04.434Z,20.40
2019-01-18T06:53:33.672Z,21.42
2019-01-18T06:56:02.886Z,20.55
2019-01-18T06:58:32.102Z,23.30
2019-01-18T07:01:01.244Z,23.22
2019-01-18T07:03:30.448Z,21.15
2019-01-18T07:05:59.742Z,22.98
2019-01-18T07:08:30.382Z,21.23
2019-01-18T07:10:59.686Z,21.97
2019-01-18T07:13:28.953Z,22.27
2019-01-18T07:15:58.108Z,19.82
2019-01-18T07:18:27.272Z,20.92
2019-01-18T07:20:56.498Z,22.90
2019-01-18T07:23:25.696Z,22.93
2019-01-18T07:25:54.950Z,25.68
2019-01-18T07:28:24.201Z,23.55
2019-01-18T07:30:53.355Z,23.25
2019-01-18T07:33:22.679Z,22.58
2019-01-18T07:35:52.378Z,21.75
2019-01-18T07:38:21.545Z,23.02
2019-01-18T07:40:50.678Z,23.50
2019-01-18T07:43:19.796Z,23.50
2019-01-18T07:45:48.977Z,21.55
2019-01-18T07:48:18.261Z,22.85
2019-01-18T07:50:47.535Z,21.77
2019-01-18T07:53:16.765Z,22.05
2019-01-18T07:55:45.978Z,23.35
2019-01-18T07:58:15.228Z,22.30
2019-01-18T08:00:44.477Z,22.58
2019-01-18T08:03:13.710Z,21.75
2019-01-18T08:05:42.929Z,20.20
2019-01-18T08:08:12.233Z,21.10
2019-01-18T08:10:41.463Z,22.32
2019-01-18T08:13:10.687Z,19.90
2019-01-18T08:15:39.863Z,20.37
2019-01-18T08:18:09.001Z,17.90
2019-01-18T08:20:38.257Z,19.40
2019-01-18T08:23:07.516Z,19.95
2019-01-18T08:25:36.726Z,18.30
2019-01-18T08:28:06.705Z,19.90
2019-01-18T08:30:35.919Z,19.07
2019-01-18T08:33:05.375Z,21.55
2019-01-18T08:35:34.709Z,20.20
2019-01-18T08:38:03.856Z,19.95
2019-01-18T08:40:38.617Z,19.45
2019-01-18T08:43:09.880Z,19.12
2019-01-18T08:45:42.009Z,20.20
2019-01-18T08:48:11.657Z,19.75
2019-01-18T08:50:41.227Z,19.23
2019-01-18T08:53:10.420Z,19.20
2019-01-18T08:55:39.725Z,18.37
2019-01-18T08:58:08.947Z,19.50
2019-01-18T09:00:38.133Z,22.30
2019-01-18T09:03:07.339Z,23.20
2019-01-18T09:05:36.626Z,19.63
2019-01-18T09:08:05.730Z,20.03
2019-01-18T09:10:35.049Z,20.70
2019-01-18T09:13:04.297Z,20.47
2019-01-18T09:15:33.521Z,20.75
2019-01-18T09:18:03.073Z,18.90
2019-01-18T09:20:32.511Z,20.63
2019-01-18T09:23:01.749Z,18.27
2019-01-18T09:25:31.053Z,19.50
2019-01-18T09:28:01.199Z,19.60
2019-01-18T09:30:33.405Z,20.60
2019-01-18T09:33:04.331Z,22.30
2019-01-18T09:35:33.680Z,21.90
2019-01-18T09:38:02.932Z,21.40
2019-01-18T09:40:33.194Z,21.27
2019-01-18T09:43:02.373Z,23.70
2019-01-18T09:45:32.456Z,22.13
2019-01-18T09:48:01.764Z,23.13
2019-01-18T09:50:32.656Z,26.20
2019-01-18T09:53:02.342Z,22.27
2019-01-18T09:55:31.956Z,22.13
2019-01-18T09:58:01.231Z,22.63
2019-01-18T10:00:32.526Z,22.30
2019-01-18T10:03:02.159Z,22.17
2019-01-18T10:05:32.259Z,22.90
2019-01-18T10:08:01.770Z,23.47
2019-01-18T10:10:31.019Z,23.87
2019-01-18T10:13:00.345Z,28.70
2019-01-18T10:15:34.801Z,24.87
2019-01-18T10:18:04.388Z,24.35
2019-01-18T10:20:33.573Z,22.87
2019-01-18T10:23:03.728Z,22.35
2019-01-18T10:25:32.968Z,23.25
2019-01-18T10:28:02.557Z,23.50
2019-01-18T10:30:31.715Z,24.77
2019-01-18T10:33:02.100Z,22.73
2019-01-18T10:35:31.344Z,23.35
2019-01-18T10:38:01.427Z,22.67
2019-01-18T10:40:30.638Z,23.38
2019-01-18T10:43:00.024Z,22.27
2019-01-18T10:45:30.023Z,23.52
2019-01-18T10:48:00.685Z,22.07
2019-01-18T10:50:33.995Z,24.98
2019-01-18T10:53:03.301Z,24.50
2019-01-18T10:55:32.623Z,24.18
2019-01-18T10:58:01.878Z,23.92
2019-01-18T11:00:34.538Z,26.55
2019-01-18T11:03:05.009Z,23.73
2019-01-18T11:05:34.279Z,21.97
2019-01-18T11:08:03.572Z,20.80
2019-01-18T11:10:33.157Z,20.82
2019-01-18T11:13:02.423Z,19.07
2019-01-18T11:15:35.978Z,19.07
2019-01-18T11:18:03.195Z,17.65
2019-01-18T11:20:54.593Z,16.50
2019-01-18T11:23:23.897Z,19.20
2019-01-18T11:25:53.139Z,18.67
2019-01-18T11:28:22.329Z,18.07
2019-01-18T11:30:51.631Z,16.83
2019-01-18T11:33:20.870Z,16.83
2019-01-18T11:35:50.108Z,16.27
2019-01-18T11:38:19.342Z,16.30
2019-01-18T11:40:48.558Z,16.77
2019-01-18T11:43:17.732Z,14.53
2019-01-18T11:45:47.019Z,14.50
2019-01-18T11:48:16.336Z,12.45
2019-01-18T11:50:45.753Z,14.73
2019-01-18T11:53:15.349Z,14.98
2019-01-18T11:55:44.574Z,16.10
2019-01-18T11:58:13.827Z,16.30
2019-01-18T12:00:43.080Z,14.85
2019-01-18T12:03:12.573Z,15.10
2019-01-18T12:05:42.140Z,16.57
2019-01-18T12:08:11.407Z,15.93
2019-01-18T12:10:40.577Z,14.20
2019-01-18T12:13:09.772Z,13.75
2019-01-18T12:15:39.283Z,15.00
2019-01-18T12:18:08.554Z,14.18
2019-01-18T12:20:37.990Z,14.30
2019-01-18T12:23:07.794Z,14.23
2019-01-18T12:25:36.931Z,12.65
2019-01-18T12:28:06.930Z,13.40
2019-01-18T12:30:36.989Z,13.83
2019-01-18T12:33:06.525Z,14.23
2019-01-18T12:35:35.945Z,13.83
2019-01-18T12:38:05.905Z,16.50
2019-01-18T12:40:35.189Z,15.40
2019-01-18T12:43:04.235Z,17.25
2019-01-18T12:45:33.464Z,16.87
2019-01-18T12:48:02.709Z,15.70
2019-01-18T12:50:40.452Z,16.23
2019-01-18T12:53:09.860Z,16.50
2019-01-18T12:55:41.587Z,18.82
2019-01-18T12:58:10.769Z,17.75
2019-01-18T13:00:40.008Z,17.40
2019-01-18T13:03:09.652Z,16.80
2019-01-18T13:05:42.076Z,15.88
2019-01-18T13:08:12.607Z,17.65
2019-01-18T13:10:41.879Z,17.90
2019-01-18T13:13:11.227Z,18.00
2019-01-18T13:15:47.899Z,17.48
2019-01-18T13:18:18.180Z,18.52
2019-01-18T13:20:53.560Z,19.60
2019-01-18T13:23:22.899Z,21.70
2019-01-18T13:25:52.531Z,19.27
2019-01-18T13:28:25.312Z,19.35
2019-01-18T13:30:54.742Z,21.02
2019-01-18T13:33:23.991Z,20.15
2019-01-18T13:35:53.940Z,20.48
2019-01-18T13:38:24.255Z,19.80
2019-01-18T13:40:54.870Z,20.10
2019-01-18T13:43:30.591Z,19.70
2019-01-18T13:45:59.974Z,18.73
2019-01-18T13:48:29.228Z,19.07
2019-01-18T13:50:58.472Z,20.00
2019-01-18T13:53:27.872Z,18.80
2019-01-18T13:55:58.778Z,18.55
2019-01-18T13:58:29.028Z,20.35
2019-01-18T14:00:59.649Z,20.12
2019-01-18T14:03:29.135Z,19.95
2019-01-18T14:05:58.409Z,18.17
2019-01-18T14:08:28.634Z,18.57
2019-01-18T14:10:58.597Z,19.80
2019-01-18T14:13:27.890Z,20.30
2019-01-18T14:15:58.619Z,19.45
2019-01-18T14:18:29.120Z,19.75
2019-01-18T14:20:58.358Z,19.00
2019-01-18T14:23:27.566Z,20.52
2019-01-18T14:25:58.289Z,15.55
2019-01-18T14:28:33.578Z,18.35
2019-01-18T14:31:05.583Z,14.50
2019-01-18T14:33:36.571Z,19.27
2019-01-18T14:36:16.570Z,21.17
2019-01-18T14:38:46.141Z,19.65
2019-01-18T14:41:15.875Z,19.90
2019-01-18T14:43:46.502Z,19.45
2019-01-18T14:46:17.056Z,20.97
2019-01-18T14:48:46.327Z,21.80
2019-01-18T14:51:16.532Z,20.65
2019-01-18T14:53:48.108Z,20.92
2019-01-18T14:56:19.722Z,21.02
2019-01-18T14:58:49.573Z,21.68
2019-01-18T15:01:18.909Z,20.90
2019-01-18T15:03:48.375Z,20.20
2019-01-18T15:06:18.207Z,19.52
2019-01-18T15:08:47.911Z,20.95
2019-01-18T15:11:20.897Z,21.20
2019-01-18T15:13:51.621Z,19.82
2019-01-18T15:16:21.454Z,19.57
2019-01-18T15:18:51.981Z,20.48
2019-01-18T15:21:21.430Z,20.45
2019-01-18T15:23:50.879Z,19.70
2019-01-18T15:26:20.145Z,20.72
2019-01-18T15:28:52.893Z,21.90
2019-01-18T15:31:24.051Z,20.75
2019-01-18T15:33:53.334Z,20.02
2019-01-18T15:36:25.658Z,20.65
2019-01-18T15:38:56.204Z,20.62
2019-01-18T15:41:25.547Z,18.42
2019-01-18T15:43:54.793Z,19.98
2019-01-18T15:46:25.291Z,19.57
2019-01-18T15:48:54.637Z,20.08
2019-01-18T15:51:25.958Z,19.35
2019-01-18T15:53:58.248Z,19.85
2019-01-18T15:56:27.890Z,18.20
2019-01-18T15:58:57.141Z,17.48
2019-01-18T16:01:30.039Z,18.23
2019-01-18T16:03:59.496Z,19.20
2019-01-18T16:06:29.044Z,18.35
2019-01-18T16:09:00.555Z,19.60
2019-01-18T16:11:29.765Z,19.07
2019-01-18T16:13:59.177Z,17.52
2019-01-18T16:16:39.303Z,17.98
2019-01-18T16:19:08.696Z,18.27
2019-01-18T16:21:40.257Z,18.67
2019-01-18T16:24:10.889Z,17.42
2019-01-18T16:26:40.203Z,17.48
2019-01-18T16:29:09.497Z,17.25
2019-01-18T16:31:38.856Z,17.23
2019-01-18T16:34:08.443Z,17.82
2019-01-18T16:36:39.438Z,18.48
2019-01-18T16:39:12.833Z,17.27
2019-01-18T16:41:42.344Z,15.25
2019-01-18T16:44:13.384Z,17.60
2019-01-18T16:46:54.119Z,16.25
2019-01-18T16:49:24.211Z,17.27
2019-01-18T16:51:53.909Z,14.83
2019-01-18T16:54:25.545Z,15.95
2019-01-18T16:56:55.649Z,16.85
2019-01-18T16:59:26.193Z,15.93
2019-01-18T17:01:55.458Z,14.80
2019-01-18T17:04:24.695Z,15.28
2019-01-18T17:06:54.182Z,16.27
2019-01-18T17:09:25.549Z,15.75
2019-01-18T17:11:59.362Z,16.10
2019-01-18T17:14:28.924Z,16.32
2019-01-18T17:16:58.179Z,15.55
2019-01-18T17:19:31.343Z,16.07
2019-01-18T17:22:01.599Z,17.00
2019-01-18T17:24:31.329Z,16.50
2019-01-18T17:27:04.340Z,15.85
2019-01-18T17:29:33.781Z,15.70
2019-01-18T17:32:03.301Z,15.80
2019-01-18T17:34:49.455Z,15.25
2019-01-18T17:37:24.330Z,15.60
2019-01-18T17:40:13.017Z,15.98
2019-01-18T17:43:16.180Z,15.75
2019-01-18T17:46:13.188Z,17.40
2019-01-18T17:49:07.853Z,16.48
2019-01-18T17:52:33.641Z,16.85
2019-01-18T17:55:22.407Z,16.30
2019-01-18T17:58:28.298Z,17.87
2019-01-18T18:01:44.343Z,16.05
2019-01-18T18:04:44.799Z,15.40
2019-01-18T18:07:49.649Z,14.20
2019-01-18T18:10:46.029Z,15.63
2019-01-18T18:14:00.559Z,14.87
2019-01-18T18:17:03.493Z,16.40
2019-01-18T18:20:01.166Z,16.73
2019-01-18T18:23:09.459Z,15.40
2019-01-18T18:26:18.555Z,16.30
2019-01-18T18:29:24.661Z,15.88
2019-01-18T18:32:22.519Z,17.27
2019-01-18T18:35:23.278Z,16.10
2019-01-18T18:38:43.003Z,17.48
2019-01-18T18:41:47.371Z,16.35
2019-01-18T18:44:53.859Z,16.55
2019-01-18T18:48:01.799Z,15.65
2019-01-18T18:51:16.221Z,16.00
2019-01-18T18:54:29.707Z,14.50
2019-01-18T18:57:33.317Z,15.43
2019-01-18T19:00:39.688Z,15.43
2019-01-18T19:03:28.078Z,14.07
2019-01-18T19:06:37.952Z,14.63
2019-01-18T19:09:28.646Z,14.28
2019-01-18T19:12:44.255Z,15.53
2019-01-18T19:15:46.727Z,15.58
2019-01-18T19:19:21.341Z,15.65
2019-01-18T19:22:43.749Z,15.05
2019-01-18T19:25:57.650Z,15.38
2019-01-18T19:28:53.861Z,14.50
2019-01-18T19:32:18.366Z,15.48
2019-01-18T19:35:46.668Z,15.85
2019-01-18T19:38:43.638Z,15.30
2019-01-18T19:41:44.373Z,14.55
2019-01-18T19:44:56.507Z,14.38
2019-01-18T19:48:18.141Z,15.08
2019-01-18T19:51:16.417Z,14.58
2019-01-18T19:54:01.167Z,15.65
2019-01-18T19:57:07.467Z,15.58
2019-01-18T20:00:22.468Z,15.13
2019-01-18T20:03:48.070Z,15.43
2019-01-18T20:06:49.307Z,16.00
2019-01-18T20:10:06.764Z,16.87
2019-01-18T20:13:27.330Z,14.65
2019-01-18T20:17:01.824Z,16.05
2019-01-18T20:20:12.666Z,14.50
2019-01-18T20:22:58.859Z,16.40
2019-01-18T20:25:43.607Z,15.60
2019-01-18T20:28:33.372Z,15.13
2019-01-18T20:31:34.419Z,15.40
2019-01-18T20:34:56.883Z,14.50
2019-01-18T20:38:08.803Z,14.50
2019-01-18T20:41:23.429Z,16.35
2019-01-18T20:44:58.042Z,14.47
2019-01-18T20:48:00.394Z,14.68
2019-01-18T20:51:02.839Z,15.98
2019-01-18T20:53:58.292Z,15.40
2019-01-18T20:57:02.584Z,16.23
2019-01-18T21:00:06.586Z,16.05
2019-01-18T21:03:08.406Z,17.20
2019-01-18T21:05:49.750Z,18.35
2019-01-18T21:08:56.302Z,17.02
2019-01-18T21:11:52.020Z,17.65
2019-01-18T21:15:05.236Z,18.85
2019-01-18T21:18:14.426Z,17.15
2019-01-18T21:21:15.190Z,16.37
2019-01-18T21:24:11.590Z,17.75
2019-01-18T21:27:19.360Z,17.05
2019-01-18T21:30:06.431Z,18.27
2019-01-18T21:33:10.762Z,17.48
2019-01-18T21:36:06.056Z,18.92
2019-01-18T21:39:25.466Z,18.15
2019-01-18T21:42:42.599Z,16.95
2019-01-18T21:45:51.019Z,16.32
2019-01-18T21:49:02.100Z,17.42
2019-01-18T21:51:56.711Z,16.60
2019-01-18T21:55:08.830Z,16.00
2019-01-18T21:58:21.802Z,16.45
2019-01-18T22:01:47.115Z,15.88
2019-01-18T22:04:46.700Z,16.55
2019-01-18T22:07:46.977Z,14.78
2019-01-18T22:10:25.264Z,14.75
2019-01-18T22:13:53.750Z,16.00
2019-01-18T22:16:58.222Z,15.90
2019-01-18T22:19:53.245Z,16.37
2019-01-18T22:22:51.201Z,15.35
2019-01-18T22:26:14.489Z,15.23
2019-01-18T22:29:26.801Z,16.10
2019-01-18T22:32:29.081Z,18.20
2019-01-18T22:35:33.961Z,16.77
2019-01-18T22:38:59.405Z,17.35
2019-01-18T22:41:44.169Z,19.15
2019-01-18T22:44:50.971Z,17.92
2019-01-18T22:48:00.252Z,18.65
2019-01-18T22:51:10.498Z,18.50
2019-01-18T22:54:19.481Z,17.52
2019-01-18T22:57:25.903Z,19.07
2019-01-18T23:00:48.361Z,19.45
2019-01-18T23:03:35.254Z,17.40
2019-01-18T23:06:41.613Z,17.52
2019-01-18T23:09:58.825Z,19.42
2019-01-18T23:13:07.831Z,17.42
2019-01-18T23:16:07.955Z,19.37
2019-01-18T23:18:54.167Z,17.32
2019-01-18T23:22:04.405Z,17.87
2019-01-18T23:24:51.615Z,17.15
2019-01-18T23:27:57.963Z,18.17
2019-01-18T23:30:46.811Z,17.82
2019-01-18T23:33:48.458Z,16.77
2019-01-18T23:36:48.809Z,18.50
2019-01-18T23:40:00.847Z,19.23
2019-01-18T23:43:10.268Z,17.73
2019-01-18T23:46:29.688Z,17.73
2019-01-18T23:49:15.664Z,16.75
2019-01-18T23:52:07.982Z,16.60
2019-01-18T23:54:51.325Z,18.60
2019-01-18T23:57:31.563Z,17.80
